sensor_id;sensor_type;location;lat;lon;timestamp;P1;durP1;ratioP1;P2;durP2;ratioP2
15358;SDS011;7779;49.596;11.070;2022-10-04T00:01:21;7.17;;;2.47;;
15358;SDS011;7779;49.596;11.070;2022-10-04T00:03:52;8.20;;;2.70;;
15358;SDS011;7779;49.596;11.070;2022-10-04T00:06:33;5.20;;;2.30;;
15358;SDS011;7779;49.596;11.070;2022-10-04T00:09:12;5.53;;;1.93;;
15358;SDS011;7779;49.596;11.070;2022-10-04T00:11:44;3.70;;;1.90;;
15358;SDS011;7779;49.596;11.070;2022-10-04T00:16:43;4.97;;;2.10;;
15358;SDS011;7779;49.596;11.070;2022-10-04T00:24:27;5.93;;;2.17;;
15358;SDS011;7779;49.596;11.070;2022-10-04T00:29:49;3.57;;;2.10;;
15358;SDS011;7779;49.596;11.070;2022-10-04T00:37:55;4.77;;;2.10;;
15358;SDS011;7779;49.596;11.070;2022-10-04T00:40:50;2.67;;;2.07;;
15358;SDS011;7779;49.596;11.070;2022-10-04T00:46:06;2.57;;;1.90;;
15358;SDS011;7779;49.596;11.070;2022-10-04T00:48:49;2.73;;;1.50;;
15358;SDS011;7779;49.596;11.070;2022-10-04T00:54:28;1.80;;;1.57;;
15358;SDS011;7779;49.596;11.070;2022-10-04T00:57:14;8.40;;;1.83;;
15358;SDS011;7779;49.596;11.070;2022-10-04T00:59:49;4.00;;;1.90;;
15358;SDS011;7779;49.596;11.070;2022-10-04T01:02:26;3.30;;;1.90;;
15358;SDS011;7779;49.596;11.070;2022-10-04T01:05:04;3.73;;;1.63;;
15358;SDS011;7779;49.596;11.070;2022-10-04T01:08:02;3.87;;;2.50;;
15358;SDS011;7779;49.596;11.070;2022-10-04T01:10:40;5.27;;;2.00;;
15358;SDS011;7779;49.596;11.070;2022-10-04T01:13:22;3.17;;;2.00;;
15358;SDS011;7779;49.596;11.070;2022-10-04T01:18:55;2.03;;;1.77;;
15358;SDS011;7779;49.596;11.070;2022-10-04T01:21:55;2.60;;;1.90;;
15358;SDS011;7779;49.596;11.070;2022-10-04T01:24:35;5.70;;;2.43;;
15358;SDS011;7779;49.596;11.070;2022-10-04T01:30:03;2.43;;;1.93;;
15358;SDS011;7779;49.596;11.070;2022-10-04T01:32:41;4.37;;;2.10;;
15358;SDS011;7779;49.596;11.070;2022-10-04T01:35:08;4.60;;;2.23;;
15358;SDS011;7779;49.596;11.070;2022-10-04T01:37:38;4.77;;;1.97;;
15358;SDS011;7779;49.596;11.070;2022-10-04T01:40:08;3.30;;;2.27;;
15358;SDS011;7779;49.596;11.070;2022-10-04T01:42:38;5.93;;;2.00;;
15358;SDS011;7779;49.596;11.070;2022-10-04T01:45:28;3.87;;;2.50;;
15358;SDS011;7779;49.596;11.070;2022-10-04T01:48:10;6.37;;;1.93;;
15358;SDS011;7779;49.596;11.070;2022-10-04T01:50:49;3.30;;;1.97;;
15358;SDS011;7779;49.596;11.070;2022-10-04T01:53:46;7.27;;;2.50;;
15358;SDS011;7779;49.596;11.070;2022-10-04T01:56:24;5.23;;;2.53;;
15358;SDS011;7779;49.596;11.070;2022-10-04T01:58:58;6.63;;;2.47;;
15358;SDS011;7779;49.596;11.070;2022-10-04T02:01:42;5.60;;;2.33;;
15358;SDS011;7779;49.596;11.070;2022-10-04T02:04:19;3.63;;;2.30;;
15358;SDS011;7779;49.596;11.070;2022-10-04T02:06:52;4.70;;;2.37;;
15358;SDS011;7779;49.596;11.070;2022-10-04T02:09:27;5.60;;;2.30;;
15358;SDS011;7779;49.596;11.070;2022-10-04T02:11:58;4.73;;;2.13;;
15358;SDS011;7779;49.596;11.070;2022-10-04T02:14:29;3.77;;;2.07;;
15358;SDS011;7779;49.596;11.070;2022-10-04T02:16:57;4.17;;;2.40;;
15358;SDS011;7779;49.596;11.070;2022-10-04T02:19:31;3.87;;;2.10;;
15358;SDS011;7779;49.596;11.070;2022-10-04T02:22:02;2.83;;;1.90;;
15358;SDS011;7779;49.596;11.070;2022-10-04T02:24:34;3.23;;;1.70;;
15358;SDS011;7779;49.596;11.070;2022-10-04T02:27:06;7.30;;;2.13;;
15358;SDS011;7779;49.596;11.070;2022-10-04T02:29:32;2.23;;;1.77;;
15358;SDS011;7779;49.596;11.070;2022-10-04T02:31:58;2.93;;;1.90;;
15358;SDS011;7779;49.596;11.070;2022-10-04T02:34:45;2.40;;;1.90;;
15358;SDS011;7779;49.596;11.070;2022-10-04T02:37:12;2.03;;;1.77;;
15358;SDS011;7779;49.596;11.070;2022-10-04T02:40:22;6.57;;;2.07;;
15358;SDS011;7779;49.596;11.070;2022-10-04T02:42:39;1.80;;;1.60;;
15358;SDS011;7779;49.596;11.070;2022-10-04T02:48:24;2.30;;;2.00;;
15358;SDS011;7779;49.596;11.070;2022-10-04T02:51:15;4.10;;;1.80;;
15358;SDS011;7779;49.596;11.070;2022-10-04T02:57:19;3.33;;;1.60;;
15358;SDS011;7779;49.596;11.070;2022-10-04T02:59:47;5.27;;;2.00;;
15358;SDS011;7779;49.596;11.070;2022-10-04T03:02:22;3.13;;;1.97;;
15358;SDS011;7779;49.596;11.070;2022-10-04T03:04:49;3.17;;;2.00;;
15358;SDS011;7779;49.596;11.070;2022-10-04T03:07:22;3.47;;;2.13;;
15358;SDS011;7779;49.596;11.070;2022-10-04T03:09:49;2.73;;;2.20;;
15358;SDS011;7779;49.596;11.070;2022-10-04T03:12:16;2.67;;;2.17;;
15358;SDS011;7779;49.596;11.070;2022-10-04T03:14:42;3.07;;;2.27;;
15358;SDS011;7779;49.596;11.070;2022-10-04T03:17:09;4.10;;;2.37;;
15358;SDS011;7779;49.596;11.070;2022-10-04T03:19:37;2.33;;;2.00;;
15358;SDS011;7779;49.596;11.070;2022-10-04T03:22:06;2.40;;;2.10;;
15358;SDS011;7779;49.596;11.070;2022-10-04T03:24:37;2.40;;;1.87;;
15358;SDS011;7779;49.596;11.070;2022-10-04T03:29:58;2.43;;;1.80;;
15358;SDS011;7779;49.596;11.070;2022-10-04T03:32:26;2.70;;;2.00;;
15358;SDS011;7779;49.596;11.070;2022-10-04T03:34:57;2.50;;;1.80;;
15358;SDS011;7779;49.596;11.070;2022-10-04T03:37:28;2.27;;;1.70;;
15358;SDS011;7779;49.596;11.070;2022-10-04T03:39:59;2.40;;;1.70;;
15358;SDS011;7779;49.596;11.070;2022-10-04T03:42:27;3.77;;;1.90;;
15358;SDS011;7779;49.596;11.070;2022-10-04T03:45:03;3.83;;;2.37;;
15358;SDS011;7779;49.596;11.070;2022-10-04T03:47:36;3.67;;;2.23;;
15358;SDS011;7779;49.596;11.070;2022-10-04T03:52:57;4.13;;;2.80;;
15358;SDS011;7779;49.596;11.070;2022-10-04T03:55:33;3.73;;;2.30;;
15358;SDS011;7779;49.596;11.070;2022-10-04T03:58:07;3.93;;;2.30;;
15358;SDS011;7779;49.596;11.070;2022-10-04T04:00:42;2.80;;;1.93;;
15358;SDS011;7779;49.596;11.070;2022-10-04T04:03:21;3.13;;;1.90;;
15358;SDS011;7779;49.596;11.070;2022-10-04T04:05:52;5.27;;;2.43;;
15358;SDS011;7779;49.596;11.070;2022-10-04T04:08:27;2.70;;;1.90;;
15358;SDS011;7779;49.596;11.070;2022-10-04T04:10:58;2.53;;;2.33;;
15358;SDS011;7779;49.596;11.070;2022-10-04T04:13:36;3.67;;;2.37;;
15358;SDS011;7779;49.596;11.070;2022-10-04T04:16:25;3.60;;;2.27;;
15358;SDS011;7779;49.596;11.070;2022-10-04T04:18:52;4.70;;;2.23;;
15358;SDS011;7779;49.596;11.070;2022-10-04T04:21:25;6.53;;;3.20;;
15358;SDS011;7779;49.596;11.070;2022-10-04T04:23:54;4.63;;;3.40;;
15358;SDS011;7779;49.596;11.070;2022-10-04T04:26:32;6.57;;;2.90;;
15358;SDS011;7779;49.596;11.070;2022-10-04T04:32:20;6.10;;;2.87;;
15358;SDS011;7779;49.596;11.070;2022-10-04T04:34:59;5.63;;;3.47;;
15358;SDS011;7779;49.596;11.070;2022-10-04T04:37:36;4.03;;;2.63;;
15358;SDS011;7779;49.596;11.070;2022-10-04T04:40:19;5.97;;;3.00;;
15358;SDS011;7779;49.596;11.070;2022-10-04T04:42:49;4.90;;;3.70;;
15358;SDS011;7779;49.596;11.070;2022-10-04T04:45:21;5.23;;;3.20;;
15358;SDS011;7779;49.596;11.070;2022-10-04T04:47:53;4.63;;;3.00;;
15358;SDS011;7779;49.596;11.070;2022-10-04T04:50:26;4.60;;;3.07;;
15358;SDS011;7779;49.596;11.070;2022-10-04T04:55:40;5.20;;;2.70;;
15358;SDS011;7779;49.596;11.070;2022-10-04T04:58:13;5.97;;;2.67;;
15358;SDS011;7779;49.596;11.070;2022-10-04T05:00:52;3.10;;;2.80;;
15358;SDS011;7779;49.596;11.070;2022-10-04T05:03:30;3.77;;;3.07;;
15358;SDS011;7779;49.596;11.070;2022-10-04T05:05:58;3.77;;;3.13;;
15358;SDS011;7779;49.596;11.070;2022-10-04T05:08:32;4.90;;;3.43;;
15358;SDS011;7779;49.596;11.070;2022-10-04T05:13:44;3.87;;;2.97;;
15358;SDS011;7779;49.596;11.070;2022-10-04T05:16:25;3.10;;;2.57;;
15358;SDS011;7779;49.596;11.070;2022-10-04T05:19:15;3.63;;;3.00;;
15358;SDS011;7779;49.596;11.070;2022-10-04T05:21:50;3.80;;;3.00;;
15358;SDS011;7779;49.596;11.070;2022-10-04T05:24:23;6.83;;;3.20;;
15358;SDS011;7779;49.596;11.070;2022-10-04T05:26:56;4.20;;;2.70;;
15358;SDS011;7779;49.596;11.070;2022-10-04T05:29:27;2.83;;;2.43;;
15358;SDS011;7779;49.596;11.070;2022-10-04T05:32:01;4.53;;;2.60;;
15358;SDS011;7779;49.596;11.070;2022-10-04T05:34:48;3.87;;;3.00;;
15358;SDS011;7779;49.596;11.070;2022-10-04T05:37:18;3.50;;;2.47;;
15358;SDS011;7779;49.596;11.070;2022-10-04T05:43:18;2.60;;;2.40;;
15358;SDS011;7779;49.596;11.070;2022-10-04T05:49:06;2.60;;;2.40;;
15358;SDS011;7779;49.596;11.070;2022-10-04T05:51:51;2.73;;;2.20;;
15358;SDS011;7779;49.596;11.070;2022-10-04T05:54:32;2.20;;;2.00;;
15358;SDS011;7779;49.596;11.070;2022-10-04T06:00:09;2.83;;;2.03;;
15358;SDS011;7779;49.596;11.070;2022-10-04T06:05:46;2.70;;;2.50;;
15358;SDS011;7779;49.596;11.070;2022-10-04T06:08:27;3.97;;;3.07;;
15358;SDS011;7779;49.596;11.070;2022-10-04T06:14:34;3.47;;;2.53;;
15358;SDS011;7779;49.596;11.070;2022-10-04T06:22:32;2.70;;;2.50;;
15358;SDS011;7779;49.596;11.070;2022-10-04T06:25:04;2.53;;;2.20;;
15358;SDS011;7779;49.596;11.070;2022-10-04T06:27:39;5.33;;;2.20;;
15358;SDS011;7779;49.596;11.070;2022-10-04T06:30:18;2.67;;;2.27;;
15358;SDS011;7779;49.596;11.070;2022-10-04T06:32:50;4.10;;;1.70;;
15358;SDS011;7779;49.596;11.070;2022-10-04T06:44:40;5.03;;;3.47;;
15358;SDS011;7779;49.596;11.070;2022-10-04T06:55:43;2.87;;;2.33;;
15358;SDS011;7779;49.596;11.070;2022-10-04T07:02:16;3.80;;;2.10;;
15358;SDS011;7779;49.596;11.070;2022-10-04T07:07:31;3.33;;;1.83;;
15358;SDS011;7779;49.596;11.070;2022-10-04T07:12:42;3.57;;;2.00;;
15358;SDS011;7779;49.596;11.070;2022-10-04T07:15:25;2.90;;;2.07;;
15358;SDS011;7779;49.596;11.070;2022-10-04T07:17:58;1.80;;;1.60;;
15358;SDS011;7779;49.596;11.070;2022-10-04T07:20:33;2.87;;;1.80;;
15358;SDS011;7779;49.596;11.070;2022-10-04T07:23:12;2.43;;;1.93;;
15358;SDS011;7779;49.596;11.070;2022-10-04T07:29:16;3.97;;;1.97;;
15358;SDS011;7779;49.596;11.070;2022-10-04T07:32:42;3.00;;;2.20;;
15358;SDS011;7779;49.596;11.070;2022-10-04T07:37:35;2.20;;;2.00;;
15358;SDS011;7779;49.596;11.070;2022-10-04T07:40:33;3.50;;;2.40;;
15358;SDS011;7779;49.596;11.070;2022-10-04T07:43:05;5.03;;;2.60;;
15358;SDS011;7779;49.596;11.070;2022-10-04T07:45:46;4.83;;;2.53;;
15358;SDS011;7779;49.596;11.070;2022-10-04T07:48:14;2.47;;;2.27;;
15358;SDS011;7779;49.596;11.070;2022-10-04T07:50:47;3.63;;;3.00;;
15358;SDS011;7779;49.596;11.070;2022-10-04T07:58:48;3.70;;;3.00;;
15358;SDS011;7779;49.596;11.070;2022-10-04T08:01:58;3.67;;;2.57;;
15358;SDS011;7779;49.596;11.070;2022-10-04T08:19:05;2.63;;;2.40;;
15358;SDS011;7779;49.596;11.070;2022-10-04T08:27:58;2.63;;;2.43;;
15358;SDS011;7779;49.596;11.070;2022-10-04T08:31:13;3.03;;;2.57;;
15358;SDS011;7779;49.596;11.070;2022-10-04T08:34:54;3.47;;;2.53;;
15358;SDS011;7779;49.596;11.070;2022-10-04T08:56:08;5.20;;;3.20;;
15358;SDS011;7779;49.596;11.070;2022-10-04T09:02:07;3.57;;;3.10;;
15358;SDS011;7779;49.596;11.070;2022-10-04T09:08:15;4.63;;;2.60;;
15358;SDS011;7779;49.596;11.070;2022-10-04T09:11:19;3.20;;;2.73;;
15358;SDS011;7779;49.596;11.070;2022-10-04T09:22:45;3.77;;;3.00;;
15358;SDS011;7779;49.596;11.070;2022-10-04T09:37:01;3.30;;;3.00;;
15358;SDS011;7779;49.596;11.070;2022-10-04T09:40:27;3.17;;;2.70;;
15358;SDS011;7779;49.596;11.070;2022-10-04T09:49:18;6.50;;;2.50;;
15358;SDS011;7779;49.596;11.070;2022-10-04T09:52:00;3.43;;;2.10;;
15358;SDS011;7779;49.596;11.070;2022-10-04T10:00:34;3.30;;;2.00;;
15358;SDS011;7779;49.596;11.070;2022-10-04T10:09:23;2.23;;;1.80;;
15358;SDS011;7779;49.596;11.070;2022-10-04T10:12:23;2.40;;;1.93;;
15358;SDS011;7779;49.596;11.070;2022-10-04T10:28:02;4.10;;;1.90;;
15358;SDS011;7779;49.596;11.070;2022-10-04T10:36:53;5.93;;;1.93;;
15358;SDS011;7779;49.596;11.070;2022-10-04T10:43:15;2.27;;;1.20;;
15358;SDS011;7779;49.596;11.070;2022-10-04T11:01:24;3.57;;;1.27;;
15358;SDS011;7779;49.596;11.070;2022-10-04T11:04:19;1.60;;;1.10;;
15358;SDS011;7779;49.596;11.070;2022-10-04T11:25:18;2.73;;;0.90;;
15358;SDS011;7779;49.596;11.070;2022-10-04T11:28:13;2.97;;;1.00;;
15358;SDS011;7779;49.596;11.070;2022-10-04T11:54:39;1.07;;;0.73;;
15358;SDS011;7779;49.596;11.070;2022-10-04T12:00:13;1.97;;;0.73;;
15358;SDS011;7779;49.596;11.070;2022-10-04T12:08:42;1.27;;;0.90;;
15358;SDS011;7779;49.596;11.070;2022-10-04T12:53:17;1.33;;;0.90;;
15358;SDS011;7779;49.596;11.070;2022-10-04T13:04:14;1.27;;;0.87;;
15358;SDS011;7779;49.596;11.070;2022-10-04T13:07:01;2.90;;;0.93;;
15358;SDS011;7779;49.596;11.070;2022-10-04T13:19:31;1.37;;;0.73;;
15358;SDS011;7779;49.596;11.070;2022-10-04T13:22:32;1.47;;;0.80;;
15358;SDS011;7779;49.596;11.070;2022-10-04T13:39:39;1.03;;;0.70;;
15358;SDS011;7779;49.596;11.070;2022-10-04T13:45:31;1.60;;;1.00;;
15358;SDS011;7779;49.596;11.070;2022-10-04T13:54:39;1.10;;;0.70;;
15358;SDS011;7779;49.596;11.070;2022-10-04T13:57:42;1.17;;;0.70;;
15358;SDS011;7779;49.596;11.070;2022-10-04T14:00:28;1.70;;;0.83;;
15358;SDS011;7779;49.596;11.070;2022-10-04T14:06:11;2.60;;;1.13;;
15358;SDS011;7779;49.596;11.070;2022-10-04T14:08:50;3.13;;;1.10;;
15358;SDS011;7779;49.596;11.070;2022-10-04T14:11:59;2.57;;;1.20;;
15358;SDS011;7779;49.596;11.070;2022-10-04T14:15:17;1.60;;;1.03;;
15358;SDS011;7779;49.596;11.070;2022-10-04T14:30:23;2.40;;;1.00;;
15358;SDS011;7779;49.596;11.070;2022-10-04T14:40:17;1.43;;;0.63;;
15358;SDS011;7779;49.596;11.070;2022-10-04T15:07:17;1.23;;;0.70;;
15358;SDS011;7779;49.596;11.070;2022-10-04T15:10:10;0.80;;;0.60;;
15358;SDS011;7779;49.596;11.070;2022-10-04T15:19:07;1.83;;;0.70;;
15358;SDS011;7779;49.596;11.070;2022-10-04T15:21:59;1.03;;;0.60;;
15358;SDS011;7779;49.596;11.070;2022-10-04T15:25:35;2.03;;;0.60;;
15358;SDS011;7779;49.596;11.070;2022-10-04T15:31:27;1.50;;;0.80;;
15358;SDS011;7779;49.596;11.070;2022-10-04T15:39:33;1.73;;;0.70;;
15358;SDS011;7779;49.596;11.070;2022-10-04T15:50:36;1.50;;;0.80;;
15358;SDS011;7779;49.596;11.070;2022-10-04T15:56:29;1.27;;;0.70;;
15358;SDS011;7779;49.596;11.070;2022-10-04T16:02:05;2.23;;;0.80;;
15358;SDS011;7779;49.596;11.070;2022-10-04T16:21:47;1.23;;;0.60;;
15358;SDS011;7779;49.596;11.070;2022-10-04T16:32:18;3.27;;;0.70;;
15358;SDS011;7779;49.596;11.070;2022-10-04T16:35:04;2.27;;;0.87;;
15358;SDS011;7779;49.596;11.070;2022-10-04T16:38:12;1.23;;;0.90;;
15358;SDS011;7779;49.596;11.070;2022-10-04T16:48:31;2.57;;;1.10;;
15358;SDS011;7779;49.596;11.070;2022-10-04T16:51:27;2.60;;;1.00;;
15358;SDS011;7779;49.596;11.070;2022-10-04T16:54:10;1.20;;;0.93;;
15358;SDS011;7779;49.596;11.070;2022-10-04T17:02:14;4.63;;;3.17;;
15358;SDS011;7779;49.596;11.070;2022-10-04T17:05:18;7.40;;;4.63;;
15358;SDS011;7779;49.596;11.070;2022-10-04T17:13:24;12.87;;;6.93;;
15358;SDS011;7779;49.596;11.070;2022-10-04T17:16:22;11.37;;;7.00;;
15358;SDS011;7779;49.596;11.070;2022-10-04T17:19:12;10.23;;;6.00;;
15358;SDS011;7779;49.596;11.070;2022-10-04T17:27:45;6.93;;;4.60;;
15358;SDS011;7779;49.596;11.070;2022-10-04T17:30:21;6.13;;;3.70;;
15358;SDS011;7779;49.596;11.070;2022-10-04T17:33:04;5.37;;;3.03;;
15358;SDS011;7779;49.596;11.070;2022-10-04T17:36:36;7.00;;;2.70;;
15358;SDS011;7779;49.596;11.070;2022-10-04T17:39:26;6.73;;;3.37;;
15358;SDS011;7779;49.596;11.070;2022-10-04T17:44:59;4.73;;;3.07;;
15358;SDS011;7779;49.596;11.070;2022-10-04T17:50:51;3.10;;;2.00;;
15358;SDS011;7779;49.596;11.070;2022-10-04T17:54:11;3.20;;;1.77;;
15358;SDS011;7779;49.596;11.070;2022-10-04T17:57:29;1.97;;;1.43;;
15358;SDS011;7779;49.596;11.070;2022-10-04T18:00:13;2.23;;;1.60;;
15358;SDS011;7779;49.596;11.070;2022-10-04T18:05:59;3.00;;;2.30;;
15358;SDS011;7779;49.596;11.070;2022-10-04T18:08:49;4.50;;;2.80;;
15358;SDS011;7779;49.596;11.070;2022-10-04T18:11:24;3.20;;;2.50;;
15358;SDS011;7779;49.596;11.070;2022-10-04T18:14:04;4.33;;;2.43;;
15358;SDS011;7779;49.596;11.070;2022-10-04T18:17:12;6.50;;;3.10;;
15358;SDS011;7779;49.596;11.070;2022-10-04T18:22:56;4.50;;;2.60;;
15358;SDS011;7779;49.596;11.070;2022-10-04T18:25:30;5.00;;;2.60;;
15358;SDS011;7779;49.596;11.070;2022-10-04T18:28:02;3.47;;;2.43;;
15358;SDS011;7779;49.596;11.070;2022-10-04T18:33:16;3.27;;;2.50;;
15358;SDS011;7779;49.596;11.070;2022-10-04T18:39:00;3.27;;;2.27;;
15358;SDS011;7779;49.596;11.070;2022-10-04T18:41:35;3.77;;;2.23;;
15358;SDS011;7779;49.596;11.070;2022-10-04T18:44:20;4.60;;;2.30;;
15358;SDS011;7779;49.596;11.070;2022-10-04T18:46:54;2.30;;;1.87;;
15358;SDS011;7779;49.596;11.070;2022-10-04T18:49:28;2.83;;;1.90;;
15358;SDS011;7779;49.596;11.070;2022-10-04T19:00:18;3.23;;;1.80;;
15358;SDS011;7779;49.596;11.070;2022-10-04T19:03:21;4.03;;;1.90;;
15358;SDS011;7779;49.596;11.070;2022-10-04T19:08:48;4.37;;;2.47;;
15358;SDS011;7779;49.596;11.070;2022-10-04T19:11:48;4.20;;;2.30;;
15358;SDS011;7779;49.596;11.070;2022-10-04T19:18:00;4.30;;;2.17;;
15358;SDS011;7779;49.596;11.070;2022-10-04T19:20:51;4.43;;;2.37;;
15358;SDS011;7779;49.596;11.070;2022-10-04T19:23:31;3.80;;;2.33;;
15358;SDS011;7779;49.596;11.070;2022-10-04T19:26:13;4.13;;;2.53;;
15358;SDS011;7779;49.596;11.070;2022-10-04T19:35:02;5.63;;;2.80;;
15358;SDS011;7779;49.596;11.070;2022-10-04T19:37:44;3.43;;;2.80;;
15358;SDS011;7779;49.596;11.070;2022-10-04T19:40:37;3.53;;;2.47;;
15358;SDS011;7779;49.596;11.070;2022-10-04T19:43:50;3.80;;;2.90;;
15358;SDS011;7779;49.596;11.070;2022-10-04T19:49:55;3.67;;;2.53;;
15358;SDS011;7779;49.596;11.070;2022-10-04T19:52:52;2.87;;;2.57;;
15358;SDS011;7779;49.596;11.070;2022-10-04T19:58:32;3.47;;;2.40;;
15358;SDS011;7779;49.596;11.070;2022-10-04T20:01:15;3.13;;;2.30;;
15358;SDS011;7779;49.596;11.070;2022-10-04T20:03:45;3.73;;;2.47;;
15358;SDS011;7779;49.596;11.070;2022-10-04T20:06:32;3.93;;;2.73;;
15358;SDS011;7779;49.596;11.070;2022-10-04T20:09:20;10.50;;;6.10;;
15358;SDS011;7779;49.596;11.070;2022-10-04T20:11:49;5.70;;;3.30;;
15358;SDS011;7779;49.596;11.070;2022-10-04T20:21:52;4.87;;;3.10;;
15358;SDS011;7779;49.596;11.070;2022-10-04T20:24:49;4.77;;;3.20;;
15358;SDS011;7779;49.596;11.070;2022-10-04T20:34:51;3.50;;;2.43;;
15358;SDS011;7779;49.596;11.070;2022-10-04T20:37:19;4.20;;;2.80;;
15358;SDS011;7779;49.596;11.070;2022-10-04T20:42:25;3.70;;;2.60;;
15358;SDS011;7779;49.596;11.070;2022-10-04T20:47:46;3.63;;;2.37;;
15358;SDS011;7779;49.596;11.070;2022-10-04T20:56:06;3.60;;;2.30;;
15358;SDS011;7779;49.596;11.070;2022-10-04T20:58:52;3.90;;;2.33;;
15358;SDS011;7779;49.596;11.070;2022-10-04T21:01:24;3.57;;;2.27;;
15358;SDS011;7779;49.596;11.070;2022-10-04T21:04:20;4.43;;;2.63;;
15358;SDS011;7779;49.596;11.070;2022-10-04T21:07:00;2.60;;;2.40;;
15358;SDS011;7779;49.596;11.070;2022-10-04T21:09:30;2.80;;;2.40;;
15358;SDS011;7779;49.596;11.070;2022-10-04T21:11:58;2.97;;;2.10;;
15358;SDS011;7779;49.596;11.070;2022-10-04T21:14:29;3.87;;;2.07;;
15358;SDS011;7779;49.596;11.070;2022-10-04T21:17:00;3.77;;;2.30;;
15358;SDS011;7779;49.596;11.070;2022-10-04T21:30:14;4.50;;;2.37;;
15358;SDS011;7779;49.596;11.070;2022-10-04T21:32:42;3.63;;;2.23;;
15358;SDS011;7779;49.596;11.070;2022-10-04T21:35:08;4.00;;;2.17;;
15358;SDS011;7779;49.596;11.070;2022-10-04T21:37:34;4.30;;;2.53;;
15358;SDS011;7779;49.596;11.070;2022-10-04T21:40:00;3.20;;;2.27;;
15358;SDS011;7779;49.596;11.070;2022-10-04T21:42:28;3.50;;;2.20;;
15358;SDS011;7779;49.596;11.070;2022-10-04T21:44:54;3.10;;;2.20;;
15358;SDS011;7779;49.596;11.070;2022-10-04T21:47:19;3.13;;;2.00;;
15358;SDS011;7779;49.596;11.070;2022-10-04T21:49:46;5.33;;;2.50;;
15358;SDS011;7779;49.596;11.070;2022-10-04T21:52:13;4.30;;;2.23;;
15358;SDS011;7779;49.596;11.070;2022-10-04T21:54:41;2.80;;;2.33;;
15358;SDS011;7779;49.596;11.070;2022-10-04T21:57:07;2.87;;;2.33;;
15358;SDS011;7779;49.596;11.070;2022-10-04T21:59:33;3.67;;;2.10;;
15358;SDS011;7779;49.596;11.070;2022-10-04T22:01:58;4.07;;;2.20;;
15358;SDS011;7779;49.596;11.070;2022-10-04T22:04:24;4.10;;;2.10;;
15358;SDS011;7779;49.596;11.070;2022-10-04T22:06:50;3.97;;;2.03;;
15358;SDS011;7779;49.596;11.070;2022-10-04T22:09:16;3.60;;;2.33;;
15358;SDS011;7779;49.596;11.070;2022-10-04T22:11:41;3.47;;;2.30;;
15358;SDS011;7779;49.596;11.070;2022-10-04T22:14:07;3.33;;;2.53;;
15358;SDS011;7779;49.596;11.070;2022-10-04T22:16:33;4.60;;;2.63;;
15358;SDS011;7779;49.596;11.070;2022-10-04T22:18:58;3.20;;;2.60;;
15358;SDS011;7779;49.596;11.070;2022-10-04T22:21:24;3.97;;;2.40;;
15358;SDS011;7779;49.596;11.070;2022-10-04T22:23:50;2.80;;;2.57;;
15358;SDS011;7779;49.596;11.070;2022-10-04T22:26:17;3.13;;;2.43;;
15358;SDS011;7779;49.596;11.070;2022-10-04T22:28:53;3.50;;;2.87;;
15358;SDS011;7779;49.596;11.070;2022-10-04T22:31:21;3.40;;;2.33;;
15358;SDS011;7779;49.596;11.070;2022-10-04T22:33:53;2.73;;;2.30;;
15358;SDS011;7779;49.596;11.070;2022-10-04T22:41:43;3.23;;;2.03;;
15358;SDS011;7779;49.596;11.070;2022-10-04T22:44:22;5.53;;;2.10;;
15358;SDS011;7779;49.596;11.070;2022-10-04T22:46:59;3.83;;;2.30;;
15358;SDS011;7779;49.596;11.070;2022-10-04T22:49:28;4.50;;;2.23;;
15358;SDS011;7779;49.596;11.070;2022-10-04T22:51:58;3.77;;;2.30;;
15358;SDS011;7779;49.596;11.070;2022-10-04T22:54:31;2.90;;;2.20;;
15358;SDS011;7779;49.596;11.070;2022-10-04T22:56:59;2.77;;;2.10;;
15358;SDS011;7779;49.596;11.070;2022-10-04T22:59:36;3.13;;;2.30;;
15358;SDS011;7779;49.596;11.070;2022-10-04T23:02:16;2.97;;;2.17;;
15358;SDS011;7779;49.596;11.070;2022-10-04T23:04:57;3.57;;;2.03;;
15358;SDS011;7779;49.596;11.070;2022-10-04T23:07:42;3.17;;;2.10;;
15358;SDS011;7779;49.596;11.070;2022-10-04T23:10:10;2.80;;;2.23;;
15358;SDS011;7779;49.596;11.070;2022-10-04T23:12:41;3.13;;;2.10;;
15358;SDS011;7779;49.596;11.070;2022-10-04T23:15:14;5.07;;;2.53;;
15358;SDS011;7779;49.596;11.070;2022-10-04T23:17:44;2.47;;;1.93;;
15358;SDS011;7779;49.596;11.070;2022-10-04T23:20:17;2.83;;;2.20;;
15358;SDS011;7779;49.596;11.070;2022-10-04T23:22:47;2.40;;;1.83;;
15358;SDS011;7779;49.596;11.070;2022-10-04T23:25:24;4.53;;;2.17;;
15358;SDS011;7779;49.596;11.070;2022-10-04T23:28:04;3.20;;;2.33;;
15358;SDS011;7779;49.596;11.070;2022-10-04T23:30:37;2.33;;;1.87;;
15358;SDS011;7779;49.596;11.070;2022-10-04T23:33:05;3.77;;;2.17;;
15358;SDS011;7779;49.596;11.070;2022-10-04T23:35:42;2.90;;;2.17;;
15358;SDS011;7779;49.596;11.070;2022-10-04T23:38:10;3.27;;;2.13;;
15358;SDS011;7779;49.596;11.070;2022-10-04T23:40:45;4.17;;;2.03;;
15358;SDS011;7779;49.596;11.070;2022-10-04T23:43:15;4.67;;;2.00;;
15358;SDS011;7779;49.596;11.070;2022-10-04T23:45:48;2.83;;;2.00;;
15358;SDS011;7779;49.596;11.070;2022-10-04T23:48:19;2.60;;;2.13;;
15358;SDS011;7779;49.596;11.070;2022-10-04T23:50:49;4.40;;;2.37;;
15358;SDS011;7779;49.596;11.070;2022-10-04T23:53:20;5.77;;;2.37;;
15358;SDS011;7779;49.596;11.070;2022-10-04T23:55:52;2.97;;;2.00;;
15358;SDS011;7779;49.596;11.070;2022-10-04T23:58:26;3.33;;;2.10;;
